sensor_id;sensor_type;location;lat;lon;timestamp;temperature;humidity
30889;DHT22;51092;50.874;7.024;2022-11-12T00:01:01;8.30;99.90
30889;DHT22;51092;50.874;7.024;2022-11-12T00:02:02;8.20;99.90
30889;DHT22;51092;50.874;7.024;2022-11-12T00:03:05;8.20;99.90
30889;DHT22;51092;50.874;7.024;2022-11-12T00:04:06;8.20;99.90
30889;DHT22;51092;50.874;7.024;2022-11-12T00:05:09;8.20;99.90
30889;DHT22;51092;50.874;7.024;2022-11-12T00:06:11;8.20;99.90
30889;DHT22;51092;50.874;7.024;2022-11-12T00:07:13;8.20;99.90
30889;DHT22;51092;50.874;7.024;2022-11-12T00:08:15;8.20;99.90
30889;DHT22;51092;50.874;7.024;2022-11-12T00:09:18;8.20;99.90
30889;DHT22;51092;50.874;7.024;2022-11-12T00:10:20;8.20;99.90
30889;DHT22;51092;50.874;7.024;2022-11-12T00:11:22;8.20;99.90
30889;DHT22;51092;50.874;7.024;2022-11-12T00:12:25;8.30;99.90
30889;DHT22;51092;50.874;7.024;2022-11-12T00:13:28;8.20;99.90
30889;DHT22;51092;50.874;7.024;2022-11-12T00:14:29;8.20;99.90
30889;DHT22;51092;50.874;7.024;2022-11-12T00:15:32;8.20;99.90
30889;DHT22;51092;50.874;7.024;2022-11-12T00:16:33;8.20;99.90
30889;DHT22;51092;50.874;7.024;2022-11-12T00:17:36;8.10;99.90
30889;DHT22;51092;50.874;7.024;2022-11-12T00:18:37;8.10;99.90
30889;DHT22;51092;50.874;7.024;2022-11-12T00:19:40;8.10;99.90
30889;DHT22;51092;50.874;7.024;2022-11-12T00:20:42;8.10;99.90
30889;DHT22;51092;50.874;7.024;2022-11-12T00:21:44;8.10;99.90
30889;DHT22;51092;50.874;7.024;2022-11-12T00:22:46;8.10;99.90
30889;DHT22;51092;50.874;7.024;2022-11-12T00:23:48;8.10;99.90
30889;DHT22;51092;50.874;7.024;2022-11-12T00:24:50;8.20;99.90
30889;DHT22;51092;50.874;7.024;2022-11-12T00:25:59;8.20;99.90
30889;DHT22;51092;50.874;7.024;2022-11-12T00:27:01;8.20;99.90
30889;DHT22;51092;50.874;7.024;2022-11-12T00:28:07;8.10;99.90
30889;DHT22;51092;50.874;7.024;2022-11-12T00:29:09;8.10;99.90
30889;DHT22;51092;50.874;7.024;2022-11-12T00:30:11;8.00;99.90
30889;DHT22;51092;50.874;7.024;2022-11-12T00:31:13;8.10;99.90
30889;DHT22;51092;50.874;7.024;2022-11-12T00:32:16;8.00;99.90
30889;DHT22;51092;50.874;7.024;2022-11-12T00:33:17;8.00;99.90
30889;DHT22;51092;50.874;7.024;2022-11-12T00:34:20;8.00;99.90
30889;DHT22;51092;50.874;7.024;2022-11-12T00:35:21;8.10;99.90
30889;DHT22;51092;50.874;7.024;2022-11-12T00:36:23;8.10;99.90
30889;DHT22;51092;50.874;7.024;2022-11-12T00:37:25;8.10;99.90
30889;DHT22;51092;50.874;7.024;2022-11-12T00:38:29;8.10;99.90
30889;DHT22;51092;50.874;7.024;2022-11-12T00:39:31;8.10;99.90
30889;DHT22;51092;50.874;7.024;2022-11-12T00:40:34;8.00;99.90
30889;DHT22;51092;50.874;7.024;2022-11-12T00:41:35;8.00;99.90
30889;DHT22;51092;50.874;7.024;2022-11-12T00:42:38;7.90;99.90
30889;DHT22;51092;50.874;7.024;2022-11-12T00:43:41;7.90;99.90
30889;DHT22;51092;50.874;7.024;2022-11-12T00:44:43;7.90;99.90
30889;DHT22;51092;50.874;7.024;2022-11-12T00:45:45;7.90;99.90
30889;DHT22;51092;50.874;7.024;2022-11-12T00:46:48;7.80;99.90
30889;DHT22;51092;50.874;7.024;2022-11-12T00:47:53;7.90;99.90
30889;DHT22;51092;50.874;7.024;2022-11-12T00:48:55;7.90;99.90
30889;DHT22;51092;50.874;7.024;2022-11-12T00:49:58;7.80;99.90
30889;DHT22;51092;50.874;7.024;2022-11-12T00:51:01;7.90;99.90
30889;DHT22;51092;50.874;7.024;2022-11-12T00:52:03;7.90;99.90
30889;DHT22;51092;50.874;7.024;2022-11-12T00:53:05;7.80;99.90
30889;DHT22;51092;50.874;7.024;2022-11-12T00:54:08;7.80;99.90
30889;DHT22;51092;50.874;7.024;2022-11-12T00:55:10;7.90;99.90
30889;DHT22;51092;50.874;7.024;2022-11-12T00:56:12;7.80;99.90
30889;DHT22;51092;50.874;7.024;2022-11-12T00:57:14;7.80;99.90
30889;DHT22;51092;50.874;7.024;2022-11-12T00:58:16;7.90;99.90
30889;DHT22;51092;50.874;7.024;2022-11-12T00:59:19;7.80;99.90
30889;DHT22;51092;50.874;7.024;2022-11-12T01:00:22;7.80;99.90
30889;DHT22;51092;50.874;7.024;2022-11-12T01:01:24;7.80;99.90
30889;DHT22;51092;50.874;7.024;2022-11-12T01:02:26;7.80;99.90
30889;DHT22;51092;50.874;7.024;2022-11-12T01:03:29;7.70;99.90
30889;DHT22;51092;50.874;7.024;2022-11-12T01:04:32;7.70;99.90
30889;DHT22;51092;50.874;7.024;2022-11-12T01:05:33;7.70;99.90
30889;DHT22;51092;50.874;7.024;2022-11-12T01:06:38;7.70;99.90
30889;DHT22;51092;50.874;7.024;2022-11-12T01:07:40;7.70;99.90
30889;DHT22;51092;50.874;7.024;2022-11-12T01:08:43;7.70;99.90
30889;DHT22;51092;50.874;7.024;2022-11-12T01:09:44;7.60;99.90
30889;DHT22;51092;50.874;7.024;2022-11-12T01:10:47;7.60;99.90
30889;DHT22;51092;50.874;7.024;2022-11-12T01:11:48;7.60;99.90
30889;DHT22;51092;50.874;7.024;2022-11-12T01:12:51;7.60;99.90
30889;DHT22;51092;50.874;7.024;2022-11-12T01:13:54;7.60;99.90
30889;DHT22;51092;50.874;7.024;2022-11-12T01:14:58;7.60;99.90
30889;DHT22;51092;50.874;7.024;2022-11-12T01:16:04;7.60;99.90
30889;DHT22;51092;50.874;7.024;2022-11-12T01:17:07;7.60;99.90
30889;DHT22;51092;50.874;7.024;2022-11-12T01:18:08;7.60;99.90
30889;DHT22;51092;50.874;7.024;2022-11-12T01:19:11;7.60;99.90
30889;DHT22;51092;50.874;7.024;2022-11-12T01:20:13;7.60;99.90
30889;DHT22;51092;50.874;7.024;2022-11-12T01:21:15;7.50;99.90
30889;DHT22;51092;50.874;7.024;2022-11-12T01:22:17;7.60;99.90
30889;DHT22;51092;50.874;7.024;2022-11-12T01:23:20;7.50;99.90
30889;DHT22;51092;50.874;7.024;2022-11-12T01:24:21;7.50;99.90
30889;DHT22;51092;50.874;7.024;2022-11-12T01:25:24;7.50;99.90
30889;DHT22;51092;50.874;7.024;2022-11-12T01:26:26;7.50;99.90
30889;DHT22;51092;50.874;7.024;2022-11-12T01:27:29;7.50;99.90
30889;DHT22;51092;50.874;7.024;2022-11-12T01:28:31;7.50;99.90
30889;DHT22;51092;50.874;7.024;2022-11-12T01:29:33;7.40;99.90
30889;DHT22;51092;50.874;7.024;2022-11-12T01:30:36;7.40;99.90
30889;DHT22;51092;50.874;7.024;2022-11-12T01:31:39;7.50;99.90
30889;DHT22;51092;50.874;7.024;2022-11-12T01:32:40;7.50;99.90
30889;DHT22;51092;50.874;7.024;2022-11-12T01:33:44;7.50;99.90
30889;DHT22;51092;50.874;7.024;2022-11-12T01:34:45;7.50;99.90
30889;DHT22;51092;50.874;7.024;2022-11-12T01:35:48;7.50;99.90
30889;DHT22;51092;50.874;7.024;2022-11-12T01:36:49;7.50;99.90
30889;DHT22;51092;50.874;7.024;2022-11-12T01:37:52;7.50;99.90
30889;DHT22;51092;50.874;7.024;2022-11-12T01:38:54;7.40;99.90
30889;DHT22;51092;50.874;7.024;2022-11-12T01:39:56;7.50;99.90
30889;DHT22;51092;50.874;7.024;2022-11-12T01:40:58;7.50;99.90
30889;DHT22;51092;50.874;7.024;2022-11-12T01:42:00;7.50;99.90
30889;DHT22;51092;50.874;7.024;2022-11-12T01:43:02;7.40;99.90
30889;DHT22;51092;50.874;7.024;2022-11-12T01:44:09;7.40;99.90
30889;DHT22;51092;50.874;7.024;2022-11-12T01:45:12;7.50;99.90
30889;DHT22;51092;50.874;7.024;2022-11-12T01:46:20;7.40;99.90
30889;DHT22;51092;50.874;7.024;2022-11-12T01:47:25;7.40;99.90
30889;DHT22;51092;50.874;7.024;2022-11-12T01:48:32;7.40;99.90
30889;DHT22;51092;50.874;7.024;2022-11-12T01:49:39;7.40;99.90
30889;DHT22;51092;50.874;7.024;2022-11-12T01:50:43;7.40;99.90
30889;DHT22;51092;50.874;7.024;2022-11-12T01:51:47;7.40;99.90
30889;DHT22;51092;50.874;7.024;2022-11-12T01:52:53;7.40;99.90
30889;DHT22;51092;50.874;7.024;2022-11-12T01:53:58;7.40;99.90
30889;DHT22;51092;50.874;7.024;2022-11-12T01:55:05;7.40;99.90
30889;DHT22;51092;50.874;7.024;2022-11-12T01:56:08;7.30;99.90
30889;DHT22;51092;50.874;7.024;2022-11-12T01:57:12;7.30;99.90
30889;DHT22;51092;50.874;7.024;2022-11-12T01:58:18;7.30;99.90
30889;DHT22;51092;50.874;7.024;2022-11-12T01:59:25;7.30;99.90
30889;DHT22;51092;50.874;7.024;2022-11-12T02:00:28;7.30;99.90
30889;DHT22;51092;50.874;7.024;2022-11-12T02:01:33;7.30;99.90
30889;DHT22;51092;50.874;7.024;2022-11-12T02:02:35;7.30;99.90
30889;DHT22;51092;50.874;7.024;2022-11-12T02:03:38;7.30;99.90
30889;DHT22;51092;50.874;7.024;2022-11-12T02:04:41;7.30;99.90
30889;DHT22;51092;50.874;7.024;2022-11-12T02:05:45;7.30;99.90
30889;DHT22;51092;50.874;7.024;2022-11-12T02:06:50;7.20;99.90
30889;DHT22;51092;50.874;7.024;2022-11-12T02:07:55;7.20;99.90
30889;DHT22;51092;50.874;7.024;2022-11-12T02:08:56;7.30;99.90
30889;DHT22;51092;50.874;7.024;2022-11-12T02:10:00;7.30;99.90
30889;DHT22;51092;50.874;7.024;2022-11-12T02:11:10;7.30;99.90
30889;DHT22;51092;50.874;7.024;2022-11-12T02:12:13;7.30;99.90
30889;DHT22;51092;50.874;7.024;2022-11-12T02:13:35;7.20;99.90
30889;DHT22;51092;50.874;7.024;2022-11-12T02:14:55;7.30;99.90
30889;DHT22;51092;50.874;7.024;2022-11-12T02:15:57;7.20;99.90
30889;DHT22;51092;50.874;7.024;2022-11-12T02:17:00;7.20;99.90
30889;DHT22;51092;50.874;7.024;2022-11-12T02:18:03;7.30;99.90
30889;DHT22;51092;50.874;7.024;2022-11-12T02:19:07;7.20;99.90
30889;DHT22;51092;50.874;7.024;2022-11-12T02:20:11;7.20;99.90
30889;DHT22;51092;50.874;7.024;2022-11-12T02:21:12;7.20;99.90
30889;DHT22;51092;50.874;7.024;2022-11-12T02:22:16;7.20;99.90
30889;DHT22;51092;50.874;7.024;2022-11-12T02:23:18;7.20;99.90
30889;DHT22;51092;50.874;7.024;2022-11-12T02:24:34;7.30;99.90
30889;DHT22;51092;50.874;7.024;2022-11-12T02:25:38;7.30;99.90
30889;DHT22;51092;50.874;7.024;2022-11-12T02:26:42;7.20;99.90
30889;DHT22;51092;50.874;7.024;2022-11-12T02:27:48;7.20;99.90
30889;DHT22;51092;50.874;7.024;2022-11-12T02:28:52;7.20;99.90
30889;DHT22;51092;50.874;7.024;2022-11-12T02:29:53;7.20;99.90
30889;DHT22;51092;50.874;7.024;2022-11-12T02:30:56;7.20;99.90
30889;DHT22;51092;50.874;7.024;2022-11-12T02:31:58;7.20;99.90
30889;DHT22;51092;50.874;7.024;2022-11-12T02:33:00;7.20;99.90
30889;DHT22;51092;50.874;7.024;2022-11-12T02:34:02;7.20;99.90
30889;DHT22;51092;50.874;7.024;2022-11-12T02:35:06;7.20;99.90
30889;DHT22;51092;50.874;7.024;2022-11-12T02:36:08;7.20;99.90
30889;DHT22;51092;50.874;7.024;2022-11-12T02:37:10;7.20;99.90
30889;DHT22;51092;50.874;7.024;2022-11-12T02:38:13;7.30;99.90
30889;DHT22;51092;50.874;7.024;2022-11-12T02:39:16;7.30;99.90
30889;DHT22;51092;50.874;7.024;2022-11-12T02:40:18;7.30;99.90
30889;DHT22;51092;50.874;7.024;2022-11-12T02:41:20;7.30;99.90
30889;DHT22;51092;50.874;7.024;2022-11-12T02:42:22;7.30;99.90
30889;DHT22;51092;50.874;7.024;2022-11-12T02:43:25;7.30;99.90
30889;DHT22;51092;50.874;7.024;2022-11-12T02:44:26;7.30;99.90
30889;DHT22;51092;50.874;7.024;2022-11-12T02:45:29;7.30;99.90
30889;DHT22;51092;50.874;7.024;2022-11-12T02:46:30;7.30;99.90
30889;DHT22;51092;50.874;7.024;2022-11-12T02:47:33;7.30;99.90
30889;DHT22;51092;50.874;7.024;2022-11-12T02:48:34;7.30;99.90
30889;DHT22;51092;50.874;7.024;2022-11-12T02:49:37;7.40;99.90
30889;DHT22;51092;50.874;7.024;2022-11-12T02:50:38;7.30;99.90
30889;DHT22;51092;50.874;7.024;2022-11-12T02:51:41;7.30;99.90
30889;DHT22;51092;50.874;7.024;2022-11-12T02:52:42;7.30;99.90
30889;DHT22;51092;50.874;7.024;2022-11-12T02:53:46;7.30;99.90
30889;DHT22;51092;50.874;7.024;2022-11-12T02:54:48;7.30;99.90
30889;DHT22;51092;50.874;7.024;2022-11-12T02:55:51;7.30;99.90
30889;DHT22;51092;50.874;7.024;2022-11-12T02:56:52;7.20;99.90
30889;DHT22;51092;50.874;7.024;2022-11-12T02:57:56;7.30;99.90
30889;DHT22;51092;50.874;7.024;2022-11-12T02:58:58;7.40;99.90
30889;DHT22;51092;50.874;7.024;2022-11-12T03:00:01;7.40;99.90
30889;DHT22;51092;50.874;7.024;2022-11-12T03:01:02;7.30;99.90
30889;DHT22;51092;50.874;7.024;2022-11-12T03:02:05;7.30;99.90
30889;DHT22;51092;50.874;7.024;2022-11-12T03:03:07;7.30;99.90
30889;DHT22;51092;50.874;7.024;2022-11-12T03:04:09;7.30;99.90
30889;DHT22;51092;50.874;7.024;2022-11-12T03:05:11;7.30;99.90
30889;DHT22;51092;50.874;7.024;2022-11-12T03:06:14;7.20;99.90
30889;DHT22;51092;50.874;7.024;2022-11-12T03:07:18;7.20;99.90
30889;DHT22;51092;50.874;7.024;2022-11-12T03:08:20;7.30;99.90
30889;DHT22;51092;50.874;7.024;2022-11-12T03:09:23;7.20;99.90
30889;DHT22;51092;50.874;7.024;2022-11-12T03:10:27;7.20;99.90
30889;DHT22;51092;50.874;7.024;2022-11-12T03:11:29;7.30;99.90
30889;DHT22;51092;50.874;7.024;2022-11-12T03:12:31;7.20;99.90
30889;DHT22;51092;50.874;7.024;2022-11-12T03:13:33;7.20;99.90
30889;DHT22;51092;50.874;7.024;2022-11-12T03:14:35;7.20;99.90
30889;DHT22;51092;50.874;7.024;2022-11-12T03:15:37;7.20;99.90
30889;DHT22;51092;50.874;7.024;2022-11-12T03:16:39;7.20;99.90
30889;DHT22;51092;50.874;7.024;2022-11-12T03:17:41;7.30;99.90
30889;DHT22;51092;50.874;7.024;2022-11-12T03:18:43;7.20;99.90
30889;DHT22;51092;50.874;7.024;2022-11-12T03:19:45;7.20;99.90
30889;DHT22;51092;50.874;7.024;2022-11-12T03:20:50;7.20;99.90
30889;DHT22;51092;50.874;7.024;2022-11-12T03:21:51;7.20;99.90
30889;DHT22;51092;50.874;7.024;2022-11-12T03:22:57;7.10;99.90
30889;DHT22;51092;50.874;7.024;2022-11-12T03:24:00;7.10;99.90
30889;DHT22;51092;50.874;7.024;2022-11-12T03:25:05;7.10;99.90
30889;DHT22;51092;50.874;7.024;2022-11-12T03:26:07;7.10;99.90
30889;DHT22;51092;50.874;7.024;2022-11-12T03:27:09;7.10;99.90
30889;DHT22;51092;50.874;7.024;2022-11-12T03:28:12;7.10;99.90
30889;DHT22;51092;50.874;7.024;2022-11-12T03:29:15;7.10;99.90
30889;DHT22;51092;50.874;7.024;2022-11-12T03:30:17;7.10;99.90
30889;DHT22;51092;50.874;7.024;2022-11-12T03:31:19;7.00;99.90
30889;DHT22;51092;50.874;7.024;2022-11-12T03:32:21;7.00;99.90
30889;DHT22;51092;50.874;7.024;2022-11-12T03:33:23;7.00;99.90
30889;DHT22;51092;50.874;7.024;2022-11-12T03:34:25;6.90;99.90
30889;DHT22;51092;50.874;7.024;2022-11-12T03:35:27;6.90;99.90
30889;DHT22;51092;50.874;7.024;2022-11-12T03:36:29;6.90;99.90
30889;DHT22;51092;50.874;7.024;2022-11-12T03:37:32;6.90;99.90
30889;DHT22;51092;50.874;7.024;2022-11-12T03:38:33;6.90;99.90
30889;DHT22;51092;50.874;7.024;2022-11-12T03:39:36;6.90;99.90
30889;DHT22;51092;50.874;7.024;2022-11-12T03:40:39;6.90;99.90
30889;DHT22;51092;50.874;7.024;2022-11-12T03:41:42;6.90;99.90
30889;DHT22;51092;50.874;7.024;2022-11-12T03:42:44;6.90;99.90
30889;DHT22;51092;50.874;7.024;2022-11-12T03:43:47;6.90;99.90
30889;DHT22;51092;50.874;7.024;2022-11-12T03:44:50;6.80;99.90
30889;DHT22;51092;50.874;7.024;2022-11-12T03:45:51;6.80;99.90
30889;DHT22;51092;50.874;7.024;2022-11-12T03:46:54;6.90;99.90
30889;DHT22;51092;50.874;7.024;2022-11-12T03:47:56;6.80;99.90
30889;DHT22;51092;50.874;7.024;2022-11-12T03:48:59;6.80;99.90
30889;DHT22;51092;50.874;7.024;2022-11-12T03:50:03;6.70;99.90
30889;DHT22;51092;50.874;7.024;2022-11-12T03:51:06;6.80;99.90
30889;DHT22;51092;50.874;7.024;2022-11-12T03:52:09;6.70;99.90
30889;DHT22;51092;50.874;7.024;2022-11-12T03:53:10;6.70;99.90
30889;DHT22;51092;50.874;7.024;2022-11-12T03:54:13;6.70;99.90
30889;DHT22;51092;50.874;7.024;2022-11-12T03:55:15;6.70;99.90
30889;DHT22;51092;50.874;7.024;2022-11-12T03:56:19;6.70;99.90
30889;DHT22;51092;50.874;7.024;2022-11-12T03:57:22;6.60;99.90
30889;DHT22;51092;50.874;7.024;2022-11-12T03:58:23;6.70;99.90
30889;DHT22;51092;50.874;7.024;2022-11-12T03:59:25;6.60;99.90
30889;DHT22;51092;50.874;7.024;2022-11-12T04:00:27;6.60;99.90
30889;DHT22;51092;50.874;7.024;2022-11-12T04:01:29;6.60;99.90
30889;DHT22;51092;50.874;7.024;2022-11-12T04:02:30;6.60;99.90
30889;DHT22;51092;50.874;7.024;2022-11-12T04:03:33;6.60;99.90
30889;DHT22;51092;50.874;7.024;2022-11-12T04:04:34;6.50;99.90
30889;DHT22;51092;50.874;7.024;2022-11-12T04:05:51;6.50;99.90
30889;DHT22;51092;50.874;7.024;2022-11-12T04:07:11;6.60;99.90
30889;DHT22;51092;50.874;7.024;2022-11-12T04:08:31;6.50;99.90
30889;DHT22;51092;50.874;7.024;2022-11-12T04:09:39;6.50;99.90
30889;DHT22;51092;50.874;7.024;2022-11-12T04:10:40;6.50;99.90
30889;DHT22;51092;50.874;7.024;2022-11-12T04:11:44;6.40;99.90
30889;DHT22;51092;50.874;7.024;2022-11-12T04:12:47;6.50;99.90
30889;DHT22;51092;50.874;7.024;2022-11-12T04:14:07;6.50;99.90
30889;DHT22;51092;50.874;7.024;2022-11-12T04:15:09;6.50;99.90
30889;DHT22;51092;50.874;7.024;2022-11-12T04:16:12;6.50;99.90
30889;DHT22;51092;50.874;7.024;2022-11-12T04:17:33;6.50;99.90
30889;DHT22;51092;50.874;7.024;2022-11-12T04:18:59;6.50;99.90
30889;DHT22;51092;50.874;7.024;2022-11-12T04:20:20;6.50;99.90
30889;DHT22;51092;50.874;7.024;2022-11-12T04:21:41;6.40;99.90
30889;DHT22;51092;50.874;7.024;2022-11-12T04:22:54;6.40;99.90
30889;DHT22;51092;50.874;7.024;2022-11-12T04:23:56;6.40;99.90
30889;DHT22;51092;50.874;7.024;2022-11-12T04:24:58;6.40;99.90
30889;DHT22;51092;50.874;7.024;2022-11-12T04:26:18;6.40;99.90
30889;DHT22;51092;50.874;7.024;2022-11-12T04:27:29;6.40;99.90
30889;DHT22;51092;50.874;7.024;2022-11-12T04:28:32;6.30;99.90
30889;DHT22;51092;50.874;7.024;2022-11-12T04:29:35;6.30;99.90
30889;DHT22;51092;50.874;7.024;2022-11-12T04:30:55;6.30;99.90
30889;DHT22;51092;50.874;7.024;2022-11-12T04:31:57;6.20;99.90
30889;DHT22;51092;50.874;7.024;2022-11-12T04:32:58;6.30;99.90
30889;DHT22;51092;50.874;7.024;2022-11-12T04:34:01;6.30;99.90
30889;DHT22;51092;50.874;7.024;2022-11-12T04:35:18;6.20;99.90
30889;DHT22;51092;50.874;7.024;2022-11-12T04:36:20;6.20;99.90
30889;DHT22;51092;50.874;7.024;2022-11-12T04:37:23;6.20;99.90
30889;DHT22;51092;50.874;7.024;2022-11-12T04:38:25;6.10;99.90
30889;DHT22;51092;50.874;7.024;2022-11-12T04:39:27;6.10;99.90
30889;DHT22;51092;50.874;7.024;2022-11-12T04:40:29;6.10;99.90
30889;DHT22;51092;50.874;7.024;2022-11-12T04:41:49;6.10;99.90
30889;DHT22;51092;50.874;7.024;2022-11-12T04:43:12;6.10;99.90
30889;DHT22;51092;50.874;7.024;2022-11-12T04:44:33;6.00;99.90
30889;DHT22;51092;50.874;7.024;2022-11-12T04:45:54;6.00;99.90
30889;DHT22;51092;50.874;7.024;2022-11-12T04:46:57;6.00;99.90
30889;DHT22;51092;50.874;7.024;2022-11-12T04:47:58;6.10;99.90
30889;DHT22;51092;50.874;7.024;2022-11-12T04:49:01;6.10;99.90
30889;DHT22;51092;50.874;7.024;2022-11-12T04:50:04;6.20;99.90
30889;DHT22;51092;50.874;7.024;2022-11-12T04:51:07;6.20;99.90
30889;DHT22;51092;50.874;7.024;2022-11-12T04:52:24;6.10;99.90
30889;DHT22;51092;50.874;7.024;2022-11-12T04:53:28;6.10;99.90
30889;DHT22;51092;50.874;7.024;2022-11-12T04:54:30;6.10;99.90
30889;DHT22;51092;50.874;7.024;2022-11-12T04:55:33;6.10;99.90
30889;DHT22;51092;50.874;7.024;2022-11-12T04:56:35;6.10;99.90
30889;DHT22;51092;50.874;7.024;2022-11-12T04:57:37;6.00;99.90
30889;DHT22;51092;50.874;7.024;2022-11-12T04:58:42;6.00;99.90
30889;DHT22;51092;50.874;7.024;2022-11-12T04:59:43;5.90;99.90
30889;DHT22;51092;50.874;7.024;2022-11-12T05:00:46;5.90;99.90
30889;DHT22;51092;50.874;7.024;2022-11-12T05:01:48;5.90;99.90
30889;DHT22;51092;50.874;7.024;2022-11-12T05:02:50;5.90;99.90
30889;DHT22;51092;50.874;7.024;2022-11-12T05:03:52;5.90;99.90
30889;DHT22;51092;50.874;7.024;2022-11-12T05:04:54;5.90;99.90
30889;DHT22;51092;50.874;7.024;2022-11-12T05:06:00;5.90;99.90
30889;DHT22;51092;50.874;7.024;2022-11-12T05:07:03;5.90;99.90
30889;DHT22;51092;50.874;7.024;2022-11-12T05:08:04;5.90;99.90
30889;DHT22;51092;50.874;7.024;2022-11-12T05:09:07;5.80;99.90
30889;DHT22;51092;50.874;7.024;2022-11-12T05:10:09;5.80;99.90
30889;DHT22;51092;50.874;7.024;2022-11-12T05:11:11;5.80;99.90
30889;DHT22;51092;50.874;7.024;2022-11-12T05:12:13;5.80;99.90
30889;DHT22;51092;50.874;7.024;2022-11-12T05:13:16;5.90;99.90
30889;DHT22;51092;50.874;7.024;2022-11-12T05:14:19;5.80;99.90
30889;DHT22;51092;50.874;7.024;2022-11-12T05:15:21;5.80;99.90
30889;DHT22;51092;50.874;7.024;2022-11-12T05:16:24;5.80;99.90
30889;DHT22;51092;50.874;7.024;2022-11-12T05:17:25;5.80;99.90
30889;DHT22;51092;50.874;7.024;2022-11-12T05:18:28;5.80;99.90
30889;DHT22;51092;50.874;7.024;2022-11-12T05:19:29;5.80;99.90
30889;DHT22;51092;50.874;7.024;2022-11-12T05:20:32;5.80;99.90
30889;DHT22;51092;50.874;7.024;2022-11-12T05:21:35;5.70;99.90
30889;DHT22;51092;50.874;7.024;2022-11-12T05:22:54;5.70;99.90
30889;DHT22;51092;50.874;7.024;2022-11-12T05:23:57;5.70;99.90
30889;DHT22;51092;50.874;7.024;2022-11-12T05:24:59;5.70;99.90
30889;DHT22;51092;50.874;7.024;2022-11-12T05:26:01;5.70;99.90
30889;DHT22;51092;50.874;7.024;2022-11-12T05:27:18;5.80;99.90
30889;DHT22;51092;50.874;7.024;2022-11-12T05:28:21;5.80;99.90
30889;DHT22;51092;50.874;7.024;2022-11-12T05:29:24;5.80;99.90
30889;DHT22;51092;50.874;7.024;2022-11-12T05:30:27;5.80;99.90
30889;DHT22;51092;50.874;7.024;2022-11-12T05:31:29;5.70;99.90
30889;DHT22;51092;50.874;7.024;2022-11-12T05:32:31;5.70;99.90
30889;DHT22;51092;50.874;7.024;2022-11-12T05:33:33;5.60;99.90
30889;DHT22;51092;50.874;7.024;2022-11-12T05:34:35;5.60;99.90
30889;DHT22;51092;50.874;7.024;2022-11-12T05:35:37;5.60;99.90
30889;DHT22;51092;50.874;7.024;2022-11-12T05:36:39;5.60;99.90
30889;DHT22;51092;50.874;7.024;2022-11-12T05:37:42;5.60;99.90
30889;DHT22;51092;50.874;7.024;2022-11-12T05:38:45;5.60;99.90
30889;DHT22;51092;50.874;7.024;2022-11-12T05:39:46;5.70;99.90
30889;DHT22;51092;50.874;7.024;2022-11-12T05:40:49;5.60;99.90
30889;DHT22;51092;50.874;7.024;2022-11-12T05:41:50;5.60;99.90
30889;DHT22;51092;50.874;7.024;2022-11-12T05:42:53;5.60;99.90
30889;DHT22;51092;50.874;7.024;2022-11-12T05:43:54;5.60;99.90
30889;DHT22;51092;50.874;7.024;2022-11-12T05:44:58;5.60;99.90
30889;DHT22;51092;50.874;7.024;2022-11-12T05:46:00;5.60;99.90
30889;DHT22;51092;50.874;7.024;2022-11-12T05:47:02;5.60;99.90
30889;DHT22;51092;50.874;7.024;2022-11-12T05:48:05;5.60;99.90
30889;DHT22;51092;50.874;7.024;2022-11-12T05:49:07;5.60;99.90
30889;DHT22;51092;50.874;7.024;2022-11-12T05:50:10;5.60;99.90
30889;DHT22;51092;50.874;7.024;2022-11-12T05:51:11;5.60;99.90
30889;DHT22;51092;50.874;7.024;2022-11-12T05:52:14;5.60;99.90
30889;DHT22;51092;50.874;7.024;2022-11-12T05:53:17;5.60;99.90
30889;DHT22;51092;50.874;7.024;2022-11-12T05:54:19;5.50;99.90
30889;DHT22;51092;50.874;7.024;2022-11-12T05:55:21;5.50;99.90
30889;DHT22;51092;50.874;7.024;2022-11-12T05:56:23;5.50;99.90
30889;DHT22;51092;50.874;7.024;2022-11-12T05:57:26;5.50;99.90
30889;DHT22;51092;50.874;7.024;2022-11-12T05:58:27;5.50;99.90
30889;DHT22;51092;50.874;7.024;2022-11-12T05:59:31;5.50;99.90
30889;DHT22;51092;50.874;7.024;2022-11-12T06:00:34;5.40;99.90
30889;DHT22;51092;50.874;7.024;2022-11-12T06:01:41;5.50;99.90
30889;DHT22;51092;50.874;7.024;2022-11-12T06:02:44;5.50;99.90
30889;DHT22;51092;50.874;7.024;2022-11-12T06:03:46;5.50;99.90
30889;DHT22;51092;50.874;7.024;2022-11-12T06:04:48;5.50;99.90
30889;DHT22;51092;50.874;7.024;2022-11-12T06:05:50;5.50;99.90
30889;DHT22;51092;50.874;7.024;2022-11-12T06:06:52;5.50;99.90
30889;DHT22;51092;50.874;7.024;2022-11-12T06:07:54;5.50;99.90
30889;DHT22;51092;50.874;7.024;2022-11-12T06:08:56;5.40;99.90
30889;DHT22;51092;50.874;7.024;2022-11-12T06:09:58;5.40;99.90
30889;DHT22;51092;50.874;7.024;2022-11-12T06:11:00;5.40;99.90
30889;DHT22;51092;50.874;7.024;2022-11-12T06:12:03;5.40;99.90
30889;DHT22;51092;50.874;7.024;2022-11-12T06:13:07;5.40;99.90
30889;DHT22;51092;50.874;7.024;2022-11-12T06:14:09;5.40;99.90
30889;DHT22;51092;50.874;7.024;2022-11-12T06:15:12;5.30;99.90
30889;DHT22;51092;50.874;7.024;2022-11-12T06:16:15;5.40;99.90
30889;DHT22;51092;50.874;7.024;2022-11-12T06:17:17;5.40;99.90
30889;DHT22;51092;50.874;7.024;2022-11-12T06:18:19;5.50;99.90
30889;DHT22;51092;50.874;7.024;2022-11-12T06:19:22;5.40;99.90
30889;DHT22;51092;50.874;7.024;2022-11-12T06:20:25;5.30;99.90
30889;DHT22;51092;50.874;7.024;2022-11-12T06:21:26;5.40;99.90
30889;DHT22;51092;50.874;7.024;2022-11-12T06:22:28;5.40;99.90
30889;DHT22;51092;50.874;7.024;2022-11-12T06:23:30;5.40;99.90
30889;DHT22;51092;50.874;7.024;2022-11-12T06:24:32;5.40;99.90
30889;DHT22;51092;50.874;7.024;2022-11-12T06:25:35;5.40;99.90
30889;DHT22;51092;50.874;7.024;2022-11-12T06:26:36;5.40;99.90
30889;DHT22;51092;50.874;7.024;2022-11-12T06:27:39;5.30;99.90
30889;DHT22;51092;50.874;7.024;2022-11-12T06:28:41;5.30;99.90
30889;DHT22;51092;50.874;7.024;2022-11-12T06:29:43;5.30;99.90
30889;DHT22;51092;50.874;7.024;2022-11-12T06:30:45;5.30;99.90
30889;DHT22;51092;50.874;7.024;2022-11-12T06:31:49;5.30;99.90
30889;DHT22;51092;50.874;7.024;2022-11-12T06:32:52;5.30;99.90
30889;DHT22;51092;50.874;7.024;2022-11-12T06:33:53;5.30;99.90
30889;DHT22;51092;50.874;7.024;2022-11-12T06:34:56;5.30;99.90
30889;DHT22;51092;50.874;7.024;2022-11-12T06:35:59;5.30;99.90
30889;DHT22;51092;50.874;7.024;2022-11-12T06:37:06;5.40;99.90
30889;DHT22;51092;50.874;7.024;2022-11-12T06:38:09;5.40;99.90
30889;DHT22;51092;50.874;7.024;2022-11-12T06:39:10;5.40;99.90
30889;DHT22;51092;50.874;7.024;2022-11-12T06:40:12;5.40;99.90
30889;DHT22;51092;50.874;7.024;2022-11-12T06:41:14;5.40;99.90
30889;DHT22;51092;50.874;7.024;2022-11-12T06:42:16;5.40;99.90
30889;DHT22;51092;50.874;7.024;2022-11-12T06:43:18;5.40;99.90
30889;DHT22;51092;50.874;7.024;2022-11-12T06:44:20;5.40;99.90
30889;DHT22;51092;50.874;7.024;2022-11-12T06:45:24;5.30;99.90
30889;DHT22;51092;50.874;7.024;2022-11-12T06:46:26;5.30;99.90
30889;DHT22;51092;50.874;7.024;2022-11-12T06:47:30;5.40;99.90
30889;DHT22;51092;50.874;7.024;2022-11-12T06:48:32;5.40;99.90